createdAt,value
2023-05-18T00:00:49.925Z,103.67
2023-05-18T00:01:49.971Z,104.53
2023-05-18T00:02:50.141Z,103.29
2023-05-18T00:03:50.231Z,104.99
2023-05-18T00:04:50.180Z,102.90
2023-05-18T00:05:50.196Z,102.65
2023-05-18T00:06:50.233Z,103.00
2023-05-18T00:07:50.293Z,102.91
2023-05-18T00:08:50.349Z,103.17
2023-05-18T00:09:50.442Z,100.70
2023-05-18T00:10:50.458Z,102.45
2023-05-18T00:11:50.496Z,101.60
2023-05-18T00:12:50.562Z,103.71
2023-05-18T00:13:50.592Z,103.17
2023-05-18T00:14:50.655Z,103.09
2023-05-18T00:15:50.733Z,101.32
2023-05-18T00:16:50.731Z,103.91
2023-05-18T00:17:50.856Z,102.55
2023-05-18T00:18:50.841Z,100.98
2023-05-18T00:19:50.857Z,101.41
2023-05-18T00:20:50.888Z,100.25
2023-05-18T00:21:50.951Z,103.54
2023-05-18T00:22:51.020Z,102.00
2023-05-18T00:23:51.035Z,102.37
2023-05-18T00:24:51.065Z,102.45
2023-05-18T00:25:51.093Z,103.97
2023-05-18T00:26:51.135Z,102.48
2023-05-18T00:27:51.171Z,102.23
2023-05-18T00:28:51.239Z,103.44
2023-05-18T00:29:51.269Z,103.31
2023-05-18T00:30:51.301Z,103.19
2023-05-18T00:31:51.386Z,101.65
2023-05-18T00:32:51.374Z,101.05
2023-05-18T00:33:51.422Z,101.46
2023-05-18T00:34:51.435Z,101.78
2023-05-18T00:35:51.492Z,100.21
2023-05-18T00:36:51.533Z,100.81
2023-05-18T00:37:51.546Z,101.31
2023-05-18T00:38:51.579Z,100.50
2023-05-18T00:39:51.625Z,101.02
2023-05-18T00:40:51.638Z,100.55
2023-05-18T00:41:51.682Z,100.41
2023-05-18T00:42:51.731Z,97.48
2023-05-18T00:43:51.768Z,99.34
2023-05-18T00:44:51.944Z,98.50
2023-05-18T00:45:51.857Z,101.21
2023-05-18T00:46:51.909Z,100.86
2023-05-18T00:47:51.976Z,97.57
2023-05-18T00:48:52.008Z,96.07
2023-05-18T00:49:52.040Z,94.47
2023-05-18T00:50:52.090Z,96.74
2023-05-18T00:51:52.126Z,98.24
2023-05-18T00:52:52.183Z,96.08
2023-05-18T00:53:52.217Z,97.37
2023-05-18T00:54:52.238Z,102.46
2023-05-18T00:55:52.251Z,97.41
2023-05-18T00:56:52.274Z,98.42
2023-05-18T00:57:52.322Z,96.79
2023-05-18T00:58:52.332Z,95.81
2023-05-18T00:59:52.367Z,94.65
2023-05-18T01:00:52.428Z,97.68
2023-05-18T01:01:52.402Z,97.46
2023-05-18T01:02:52.572Z,99.98
2023-05-18T01:03:52.441Z,97.31
2023-05-18T01:04:52.455Z,95.59
2023-05-18T01:05:52.475Z,96.60
2023-05-18T01:06:52.522Z,94.71
2023-05-18T01:07:52.521Z,100.15
2023-05-18T01:08:52.508Z,98.03
2023-05-18T01:09:52.532Z,97.47
2023-05-18T01:10:52.570Z,97.17
2023-05-18T01:11:52.555Z,96.61
2023-05-18T01:12:52.560Z,96.54
2023-05-18T01:13:52.584Z,96.26
2023-05-18T01:14:52.611Z,96.93
2023-05-18T01:15:52.684Z,97.70
2023-05-18T01:16:52.702Z,95.55
2023-05-18T01:17:52.697Z,100.91
2023-05-18T01:18:52.669Z,98.80
2023-05-18T01:19:52.651Z,97.93
2023-05-18T01:20:52.666Z,96.23
2023-05-18T01:21:52.692Z,97.63
2023-05-18T01:22:52.708Z,96.71
2023-05-18T01:23:52.710Z,96.22
2023-05-18T01:24:52.735Z,95.66
2023-05-18T01:25:52.728Z,97.76
2023-05-18T01:26:52.743Z,98.18
2023-05-18T01:27:52.746Z,98.89
2023-05-18T01:28:52.747Z,99.12
2023-05-18T01:29:52.751Z,98.71
2023-05-18T01:30:52.851Z,96.51
2023-05-18T01:31:52.760Z,97.69
2023-05-18T01:32:52.808Z,96.61
2023-05-18T01:33:52.771Z,97.43
2023-05-18T01:34:52.773Z,96.92
2023-05-18T01:35:52.801Z,96.88
2023-05-18T01:36:52.820Z,95.81
2023-05-18T01:37:52.825Z,97.59
2023-05-18T01:38:52.836Z,97.42
2023-05-18T01:39:52.834Z,97.32
2023-05-18T01:40:52.838Z,95.07
2023-05-18T01:41:52.862Z,94.38
2023-05-18T01:42:52.852Z,96.83
2023-05-18T01:43:52.854Z,97.59
2023-05-18T01:44:52.889Z,97.58
2023-05-18T01:45:52.888Z,97.51
2023-05-18T01:46:52.952Z,96.21
2023-05-18T01:47:52.958Z,97.37
2023-05-18T01:48:52.912Z,97.38
2023-05-18T01:49:52.944Z,95.56
2023-05-18T01:50:52.952Z,97.67
2023-05-18T01:51:52.960Z,99.86
2023-05-18T01:52:52.979Z,98.61
2023-05-18T01:53:53.015Z,98.78
2023-05-18T01:54:52.988Z,96.70
2023-05-18T01:55:53.000Z,94.99
2023-05-18T01:56:53.036Z,96.73
2023-05-18T01:57:53.038Z,96.32
2023-05-18T01:58:53.078Z,96.30
2023-05-18T01:59:53.084Z,98.01
2023-05-18T02:00:53.101Z,97.71
2023-05-18T02:01:59.462Z,96.97
2023-05-18T02:02:54.174Z,97.17
2023-05-18T02:03:53.115Z,97.33
2023-05-18T02:04:53.089Z,98.56
2023-05-18T02:05:53.076Z,98.82
2023-05-18T02:06:53.075Z,98.67
2023-05-18T02:07:53.074Z,98.73
2023-05-18T02:08:53.079Z,100.23
2023-05-18T02:09:53.071Z,96.96
2023-05-18T02:10:53.050Z,96.68
2023-05-18T02:11:53.057Z,97.11
2023-05-18T02:12:53.051Z,96.01
2023-05-18T02:13:53.024Z,97.97
2023-05-18T02:14:53.028Z,98.42
2023-05-18T02:15:53.084Z,98.19
2023-05-18T02:16:53.252Z,99.08
2023-05-18T02:17:53.063Z,96.99
2023-05-18T02:18:53.103Z,96.65
2023-05-18T02:19:53.000Z,97.30
2023-05-18T02:20:52.993Z,98.62
2023-05-18T02:21:52.972Z,98.23
2023-05-18T02:22:52.968Z,97.19
2023-05-18T02:23:52.963Z,98.38
2023-05-18T02:24:52.971Z,97.20
2023-05-18T02:25:52.948Z,96.26
2023-05-18T02:26:52.933Z,100.06
2023-05-18T02:27:52.927Z,99.35
2023-05-18T02:28:52.997Z,98.23
2023-05-18T02:29:52.923Z,97.74
2023-05-18T02:30:52.909Z,95.88
2023-05-18T02:31:52.978Z,97.30
2023-05-18T02:32:52.966Z,95.53
2023-05-18T02:33:52.893Z,96.94
2023-05-18T02:34:52.882Z,96.99
2023-05-18T02:35:52.913Z,96.45
2023-05-18T02:36:52.919Z,97.49
2023-05-18T02:37:52.924Z,95.46
2023-05-18T02:38:52.951Z,93.45
2023-05-18T02:39:52.983Z,92.67
2023-05-18T02:40:52.992Z,94.32
2023-05-18T02:41:53.026Z,98.37
2023-05-18T02:42:53.056Z,95.16
2023-05-18T02:43:53.056Z,93.67
2023-05-18T02:44:53.087Z,94.28
2023-05-18T02:45:53.125Z,95.83
2023-05-18T02:46:53.103Z,95.81
2023-05-18T02:47:53.157Z,93.51
2023-05-18T02:48:53.144Z,93.08
2023-05-18T02:49:53.174Z,96.17
2023-05-18T02:50:53.140Z,94.78
2023-05-18T02:51:53.157Z,97.46
2023-05-18T02:52:53.165Z,97.60
2023-05-18T02:53:53.163Z,95.67
2023-05-18T02:54:53.174Z,97.47
2023-05-18T02:55:53.162Z,95.53
2023-05-18T02:56:53.153Z,97.48
2023-05-18T02:57:53.155Z,96.46
2023-05-18T02:58:53.159Z,95.62
2023-05-18T02:59:53.161Z,94.95
2023-05-18T03:00:53.171Z,96.56
2023-05-18T03:01:53.140Z,94.70
2023-05-18T03:02:53.208Z,95.96
2023-05-18T03:03:53.127Z,93.65
2023-05-18T03:04:53.130Z,94.61
2023-05-18T03:05:53.126Z,95.61
2023-05-18T03:06:53.180Z,93.80
2023-05-18T03:07:53.117Z,93.53
2023-05-18T03:08:53.109Z,93.97
2023-05-18T03:09:53.111Z,93.25
2023-05-18T03:10:53.106Z,94.91
2023-05-18T03:11:53.118Z,95.89
2023-05-18T03:12:53.091Z,98.16
2023-05-18T03:13:53.087Z,94.23
2023-05-18T03:14:53.087Z,96.19
2023-05-18T03:15:53.091Z,94.57
2023-05-18T03:16:53.127Z,94.59
2023-05-18T03:17:53.120Z,93.56
2023-05-18T03:18:53.121Z,96.00
2023-05-18T03:19:53.061Z,96.07
2023-05-18T03:20:53.068Z,95.25
2023-05-18T03:21:53.051Z,94.66
2023-05-18T03:22:53.058Z,94.48
2023-05-18T03:23:53.051Z,97.14
2023-05-18T03:24:53.058Z,98.52
2023-05-18T03:25:53.041Z,96.98
2023-05-18T03:26:53.070Z,96.77
2023-05-18T03:27:53.042Z,96.61
2023-05-18T03:28:53.038Z,95.72
2023-05-18T03:29:53.022Z,95.01
2023-05-18T03:30:53.027Z,95.70
2023-05-18T03:31:53.126Z,96.41
2023-05-18T03:32:53.024Z,94.87
2023-05-18T03:33:53.018Z,93.38
2023-05-18T03:34:53.026Z,95.64
2023-05-18T03:35:53.011Z,96.22
2023-05-18T03:36:53.096Z,94.71
2023-05-18T03:37:53.043Z,96.57
2023-05-18T03:38:53.011Z,95.56
2023-05-18T03:39:53.007Z,94.33
2023-05-18T03:40:52.989Z,93.77
2023-05-18T03:41:53.005Z,94.77
2023-05-18T03:42:52.983Z,92.52
2023-05-18T03:43:53.006Z,92.73
2023-05-18T03:44:52.993Z,90.68
2023-05-18T03:45:53.022Z,91.29
2023-05-18T03:46:53.031Z,93.14
2023-05-18T03:47:53.065Z,92.45
2023-05-18T03:48:52.971Z,91.45
2023-05-18T03:49:52.984Z,92.26
2023-05-18T03:50:52.971Z,92.45
2023-05-18T03:51:52.961Z,90.65
2023-05-18T03:52:53.001Z,92.59
2023-05-18T03:53:52.954Z,90.94
2023-05-18T03:54:52.965Z,91.52
2023-05-18T03:55:52.953Z,90.99
2023-05-18T03:56:52.950Z,91.60
2023-05-18T03:57:52.941Z,91.67
2023-05-18T03:58:52.938Z,91.17
2023-05-18T03:59:52.952Z,90.03
2023-05-18T04:00:52.951Z,92.12
2023-05-18T04:01:52.941Z,93.97
2023-05-18T04:02:53.154Z,97.05
2023-05-18T04:03:53.022Z,93.90
2023-05-18T04:04:52.923Z,90.74
2023-05-18T04:05:52.914Z,90.87
2023-05-18T04:06:52.911Z,91.67
2023-05-18T04:07:52.921Z,91.58
2023-05-18T04:08:52.908Z,92.02
2023-05-18T04:09:52.894Z,91.64
2023-05-18T04:10:52.893Z,95.62
2023-05-18T04:11:52.904Z,87.22
2023-05-18T04:12:52.877Z,87.45
2023-05-18T04:13:52.888Z,86.25
2023-05-18T04:14:52.866Z,89.78
2023-05-18T04:15:52.960Z,90.01
2023-05-18T04:16:52.918Z,92.99
2023-05-18T04:17:52.912Z,90.25
2023-05-18T04:18:52.947Z,89.96
2023-05-18T04:19:52.866Z,91.84
2023-05-18T04:20:52.860Z,89.09
2023-05-18T04:21:52.845Z,88.00
2023-05-18T04:22:52.842Z,86.02
2023-05-18T04:23:52.845Z,87.72
2023-05-18T04:24:52.843Z,87.81
2023-05-18T04:25:52.850Z,87.07
2023-05-18T04:26:52.845Z,87.09
2023-05-18T04:27:52.833Z,86.57
2023-05-18T04:28:52.840Z,89.60
2023-05-18T04:29:52.833Z,88.39
2023-05-18T04:30:52.821Z,87.20
2023-05-18T04:31:52.840Z,87.25
2023-05-18T04:32:52.833Z,85.27
2023-05-18T04:33:52.814Z,87.26
2023-05-18T04:34:52.807Z,88.96
2023-05-18T04:35:52.793Z,88.33
2023-05-18T04:36:52.795Z,91.58
2023-05-18T04:37:52.790Z,85.98
2023-05-18T04:38:52.795Z,85.47
2023-05-18T04:39:52.792Z,87.43
2023-05-18T04:40:52.777Z,86.03
2023-05-18T04:41:52.772Z,85.77
2023-05-18T04:42:52.774Z,86.27
2023-05-18T04:43:52.905Z,89.57
2023-05-18T04:44:52.773Z,86.00
2023-05-18T04:45:52.801Z,84.58
2023-05-18T04:46:52.789Z,85.06
2023-05-18T04:47:52.869Z,86.43
2023-05-18T04:48:52.802Z,89.79
2023-05-18T04:49:52.779Z,84.14
2023-05-18T04:50:52.786Z,88.51
2023-05-18T04:51:52.789Z,88.68
2023-05-18T04:52:52.822Z,84.77
2023-05-18T04:53:52.788Z,86.43
2023-05-18T04:54:52.796Z,84.64
2023-05-18T04:55:52.790Z,85.62
2023-05-18T04:56:52.784Z,84.56
2023-05-18T04:57:52.792Z,84.42
2023-05-18T04:58:52.807Z,83.56
2023-05-18T04:59:52.793Z,87.75
2023-05-18T05:00:52.865Z,85.77
2023-05-18T05:01:52.829Z,83.42
2023-05-18T05:02:52.889Z,86.57
2023-05-18T05:03:52.881Z,84.48
2023-05-18T05:04:52.816Z,81.75
2023-05-18T05:05:52.818Z,83.94
2023-05-18T05:06:52.804Z,83.81
2023-05-18T05:07:52.824Z,83.50
2023-05-18T05:08:52.827Z,84.08
2023-05-18T05:09:52.833Z,83.59
2023-05-18T05:10:52.818Z,83.64
2023-05-18T05:11:52.822Z,83.80
2023-05-18T05:12:52.812Z,80.38
2023-05-18T05:13:52.810Z,83.17
2023-05-18T05:14:52.833Z,80.50
2023-05-18T05:15:52.903Z,82.13
2023-05-18T05:16:52.815Z,80.87
2023-05-18T05:17:52.891Z,78.86
2023-05-18T05:18:52.863Z,77.75
2023-05-18T05:19:52.830Z,77.53
2023-05-18T05:20:52.833Z,76.93
2023-05-18T05:21:52.836Z,78.50
2023-05-18T05:22:52.896Z,74.67
2023-05-18T05:23:52.842Z,77.72
2023-05-18T05:24:52.851Z,77.16
2023-05-18T05:25:52.844Z,74.63
2023-05-18T05:26:52.843Z,71.77
2023-05-18T05:27:52.856Z,73.41
2023-05-18T05:28:52.850Z,71.77
2023-05-18T05:29:52.845Z,69.05
2023-05-18T05:30:52.846Z,67.47
2023-05-18T05:31:52.868Z,73.66
2023-05-18T05:32:52.855Z,70.81
2023-05-18T05:33:52.853Z,71.26
2023-05-18T05:34:52.853Z,70.33
2023-05-18T05:35:52.846Z,71.01
2023-05-18T05:36:52.834Z,71.61
2023-05-18T05:37:52.827Z,66.80
2023-05-18T05:38:52.828Z,71.59
2023-05-18T05:39:52.825Z,71.67
2023-05-18T05:40:52.825Z,70.52
2023-05-18T05:41:52.826Z,69.81
2023-05-18T05:42:52.817Z,67.12
2023-05-18T05:43:52.825Z,70.21
2023-05-18T05:44:52.826Z,73.46
2023-05-18T05:45:52.840Z,68.88
2023-05-18T05:46:52.892Z,69.57
2023-05-18T05:47:52.869Z,68.80
2023-05-18T05:48:52.874Z,66.21
2023-05-18T05:49:52.841Z,66.70
2023-05-18T05:50:52.832Z,67.00
2023-05-18T05:51:52.823Z,63.84
2023-05-18T05:52:52.816Z,70.38
2023-05-18T05:53:52.822Z,63.52
2023-05-18T05:54:52.831Z,60.82
2023-05-18T05:55:52.840Z,63.04
2023-05-18T05:56:52.809Z,60.83
2023-05-18T05:57:52.800Z,59.47
2023-05-18T05:58:52.789Z,55.55
2023-05-18T05:59:52.806Z,57.34
2023-05-18T06:00:52.814Z,62.13
2023-05-18T06:01:52.784Z,59.03
2023-05-18T06:02:52.824Z,57.72
2023-05-18T06:03:52.811Z,57.28
2023-05-18T06:04:52.762Z,58.23
2023-05-18T06:05:52.789Z,57.96
2023-05-18T06:06:52.777Z,57.51
2023-05-18T06:07:52.772Z,58.15
2023-05-18T06:08:52.758Z,55.33
2023-05-18T06:09:52.765Z,56.51
2023-05-18T06:10:52.743Z,57.60
2023-05-18T06:11:52.741Z,54.61
2023-05-18T06:12:52.735Z,55.74
2023-05-18T06:13:52.742Z,55.49
2023-05-18T06:14:52.732Z,52.98
2023-05-18T06:15:52.728Z,51.87
2023-05-18T06:16:52.784Z,50.07
2023-05-18T06:17:52.894Z,49.89
2023-05-18T06:18:52.808Z,50.29
2023-05-18T06:19:52.727Z,50.88
2023-05-18T06:20:52.704Z,52.16
2023-05-18T06:21:52.710Z,52.09
2023-05-18T06:22:52.694Z,55.49
2023-05-18T06:23:52.692Z,58.03
2023-05-18T06:24:52.691Z,54.31
2023-05-18T06:25:52.686Z,54.04
2023-05-18T06:26:52.682Z,52.19
2023-05-18T06:27:52.693Z,52.61
2023-05-18T06:28:52.686Z,54.33
2023-05-18T06:29:52.678Z,53.56
2023-05-18T06:30:52.658Z,52.48
2023-05-18T06:31:52.745Z,54.76
2023-05-18T06:32:52.709Z,53.53
2023-05-18T06:33:52.673Z,49.02
2023-05-18T06:34:52.704Z,50.74
2023-05-18T06:35:52.658Z,51.49
2023-05-18T06:36:52.655Z,52.19
2023-05-18T06:37:52.673Z,47.91
2023-05-18T06:38:52.650Z,50.35
2023-05-18T06:39:52.652Z,54.19
2023-05-18T06:40:52.683Z,53.19
2023-05-18T06:41:52.673Z,49.00
2023-05-18T06:42:52.640Z,51.50
2023-05-18T06:43:52.633Z,49.36
2023-05-18T06:44:52.640Z,50.11
2023-05-18T06:45:52.686Z,48.20
2023-05-18T06:46:52.646Z,52.14
2023-05-18T06:47:52.638Z,50.73
2023-05-18T06:48:52.603Z,49.23
2023-05-18T06:49:52.596Z,48.59
2023-05-18T06:50:52.595Z,50.30
2023-05-18T06:51:52.596Z,49.85
2023-05-18T06:52:52.572Z,47.13
2023-05-18T06:53:52.574Z,50.74
2023-05-18T06:54:52.576Z,52.58
2023-05-18T06:55:52.567Z,50.28
2023-05-18T06:56:52.569Z,49.93
2023-05-18T06:57:52.588Z,48.55
2023-05-18T06:58:52.555Z,45.22
2023-05-18T06:59:52.559Z,48.25
2023-05-18T07:00:52.551Z,53.35
2023-05-18T07:01:52.590Z,51.75
2023-05-18T07:02:52.637Z,48.49
2023-05-18T07:03:52.563Z,49.53
2023-05-18T07:04:52.533Z,51.71
2023-05-18T07:05:52.534Z,49.42
2023-05-18T07:06:52.522Z,50.33
2023-05-18T07:07:52.556Z,48.63
2023-05-18T07:08:52.513Z,49.54
2023-05-18T07:09:52.521Z,46.18
2023-05-18T07:10:52.525Z,49.72
2023-05-18T07:11:52.530Z,51.44
2023-05-18T07:12:52.621Z,50.72
2023-05-18T07:13:52.570Z,49.92
2023-05-18T07:14:52.566Z,46.79
2023-05-18T07:15:52.663Z,47.19
2023-05-18T07:16:52.565Z,45.72
2023-05-18T07:17:52.691Z,45.40
2023-05-18T07:18:52.591Z,47.53
2023-05-18T07:19:52.577Z,44.23
2023-05-18T07:20:52.576Z,44.59
2023-05-18T07:21:52.576Z,45.52
2023-05-18T07:22:52.554Z,46.13
2023-05-18T07:23:52.589Z,37.37
2023-05-18T07:24:52.561Z,40.35
2023-05-18T07:25:52.542Z,39.64
2023-05-18T07:26:52.533Z,37.63
2023-05-18T07:27:52.553Z,40.32
2023-05-18T07:28:52.551Z,38.04
2023-05-18T07:29:52.555Z,41.04
2023-05-18T07:30:52.570Z,38.48
2023-05-18T07:31:52.602Z,40.92
2023-05-18T07:32:52.686Z,44.06
2023-05-18T07:33:52.556Z,43.99
2023-05-18T07:34:52.562Z,43.68
2023-05-18T07:35:52.584Z,40.09
2023-05-18T07:36:52.611Z,36.29
2023-05-18T07:37:52.631Z,36.41
2023-05-18T07:38:52.705Z,37.82
2023-05-18T07:39:52.757Z,36.99
2023-05-18T07:40:52.743Z,33.97
2023-05-18T07:41:52.757Z,36.24
2023-05-18T07:42:52.778Z,35.38
2023-05-18T07:43:52.808Z,41.82
2023-05-18T07:44:52.828Z,38.16
2023-05-18T07:45:52.853Z,37.12
2023-05-18T07:46:52.962Z,38.75
2023-05-18T07:47:52.907Z,36.65
2023-05-18T07:48:52.934Z,41.33
2023-05-18T07:49:52.926Z,37.85
2023-05-18T07:50:52.961Z,37.02
2023-05-18T07:51:53.033Z,38.26
2023-05-18T07:52:53.017Z,39.05
2023-05-18T07:53:53.068Z,36.20
2023-05-18T07:54:53.074Z,38.97
2023-05-18T07:55:53.104Z,40.51
2023-05-18T07:56:53.109Z,35.73
2023-05-18T07:57:53.148Z,33.78
2023-05-18T07:58:53.182Z,31.79
2023-05-18T07:59:53.226Z,30.95
2023-05-18T08:00:53.275Z,31.08
2023-05-18T08:01:53.275Z,36.62
2023-05-18T08:02:53.548Z,32.50
2023-05-18T08:03:53.421Z,35.81
2023-05-18T08:04:53.385Z,35.43
2023-05-18T08:05:53.397Z,33.69
2023-05-18T08:06:53.456Z,27.40
2023-05-18T08:07:53.493Z,27.67
2023-05-18T08:08:53.508Z,25.58
2023-05-18T08:09:53.578Z,26.10
2023-05-18T08:10:53.623Z,28.21
2023-05-18T08:11:53.644Z,27.99
2023-05-18T08:12:53.733Z,25.78
2023-05-18T08:13:53.750Z,25.00
2023-05-18T08:14:53.798Z,28.50
2023-05-18T08:16:09.907Z,32.12
2023-05-18T08:16:54.914Z,32.20
2023-05-18T08:17:53.931Z,32.14
2023-05-18T08:18:53.888Z,30.44
2023-05-18T08:19:53.928Z,31.34
2023-05-18T08:20:53.858Z,29.76
2023-05-18T08:21:53.800Z,29.60
2023-05-18T08:22:53.799Z,30.92
2023-05-18T08:23:53.778Z,30.38
2023-05-18T08:24:53.815Z,30.79
2023-05-18T08:25:53.880Z,31.33
2023-05-18T08:26:53.979Z,29.06
2023-05-18T08:27:54.017Z,28.39
2023-05-18T08:28:54.049Z,29.33
2023-05-18T08:29:54.147Z,30.93
2023-05-18T08:30:54.165Z,27.24
2023-05-18T08:31:54.273Z,25.16
2023-05-18T08:32:54.366Z,26.69
2023-05-18T08:33:54.372Z,28.83
2023-05-18T08:34:54.435Z,32.74
2023-05-18T08:35:54.500Z,31.50
2023-05-18T08:36:54.565Z,26.06
2023-05-18T08:37:54.644Z,25.48
2023-05-18T08:38:54.706Z,25.57
2023-05-18T08:39:54.752Z,27.13
2023-05-18T08:40:54.811Z,27.93
2023-05-18T08:41:54.887Z,28.51
2023-05-18T08:42:54.943Z,25.00
2023-05-18T08:43:55.011Z,28.22
2023-05-18T08:44:55.071Z,27.91
2023-05-18T08:45:55.128Z,26.93
2023-05-18T08:46:55.192Z,27.84
2023-05-18T08:47:55.370Z,29.22
2023-05-18T08:48:55.322Z,29.55
2023-05-18T08:49:55.376Z,31.13
2023-05-18T08:50:55.446Z,33.60
2023-05-18T08:51:55.494Z,29.50
2023-05-18T08:52:55.552Z,27.45
2023-05-18T08:53:55.613Z,29.56
2023-05-18T08:54:55.688Z,30.30
2023-05-18T08:55:55.760Z,29.68
2023-05-18T08:56:55.842Z,27.68
2023-05-18T08:57:55.872Z,25.00
2023-05-18T08:58:55.912Z,26.99
2023-05-18T08:59:55.976Z,26.05
2023-05-18T09:00:56.168Z,25.00
2023-05-18T09:01:56.110Z,25.78
2023-05-18T09:02:56.191Z,29.53
2023-05-18T09:03:56.203Z,31.09
2023-05-18T09:04:56.326Z,31.36
2023-05-18T09:05:56.305Z,26.64
2023-05-18T09:06:56.394Z,28.50
2023-05-18T09:07:56.423Z,30.27
2023-05-18T09:08:56.492Z,24.88
2023-05-18T09:09:56.561Z,28.43
2023-05-18T09:10:56.604Z,26.41
2023-05-18T09:11:56.688Z,25.82
2023-05-18T09:12:56.754Z,25.00
2023-05-18T09:13:56.818Z,28.25
2023-05-18T09:14:56.838Z,30.41
2023-05-18T09:15:56.970Z,32.21
2023-05-18T09:16:56.956Z,29.93
2023-05-18T09:17:57.086Z,27.56
2023-05-18T09:18:57.106Z,25.58
2023-05-18T09:19:57.167Z,27.40
2023-05-18T09:20:57.202Z,25.23
2023-05-18T09:21:57.270Z,28.74
2023-05-18T09:22:57.327Z,27.96
2023-05-18T09:23:57.397Z,27.26
2023-05-18T09:24:57.477Z,25.22
2023-05-18T09:25:57.485Z,28.24
2023-05-18T09:26:57.566Z,26.22
2023-05-18T09:27:57.625Z,25.55
2023-05-18T09:28:57.713Z,30.44
2023-05-18T09:29:57.765Z,27.99
2023-05-18T09:30:57.802Z,31.30
2023-05-18T09:31:57.928Z,28.13
2023-05-18T09:32:58.081Z,28.75
2023-05-18T09:33:58.050Z,25.58
2023-05-18T09:34:58.024Z,28.00
2023-05-18T09:35:58.109Z,30.46
2023-05-18T09:36:58.150Z,32.81
2023-05-18T09:37:58.219Z,27.04
2023-05-18T09:38:58.282Z,25.75
2023-05-18T09:39:58.360Z,30.57
2023-05-18T09:40:58.381Z,32.74
2023-05-18T09:41:58.465Z,34.06
2023-05-18T09:42:58.486Z,35.25
2023-05-18T09:43:58.559Z,36.87
2023-05-18T09:44:58.606Z,35.61
2023-05-18T09:45:58.676Z,32.90
2023-05-18T09:46:58.784Z,32.58
2023-05-18T09:47:58.797Z,38.18
2023-05-18T09:48:58.847Z,37.21
2023-05-18T09:49:58.916Z,40.66
2023-05-18T09:50:58.953Z,36.72
2023-05-18T09:51:58.993Z,33.09
2023-05-18T09:52:59.057Z,38.44
2023-05-18T09:53:59.188Z,36.96
2023-05-18T09:54:59.195Z,38.02
2023-05-18T09:55:59.225Z,42.56
2023-05-18T09:57:10.412Z,39.15
2023-05-18T09:58:00.289Z,39.23
2023-05-18T09:58:59.272Z,39.25
2023-05-18T09:59:59.302Z,38.29
2023-05-18T10:00:59.307Z,35.46
2023-05-18T10:01:59.240Z,35.73
2023-05-18T10:02:59.256Z,34.15
2023-05-18T10:03:59.279Z,36.83
2023-05-18T10:04:59.246Z,33.07
2023-05-18T10:05:59.216Z,34.44
2023-05-18T10:06:59.263Z,33.94
2023-05-18T10:07:59.290Z,36.05
2023-05-18T10:08:59.357Z,43.26
2023-05-18T10:09:59.424Z,44.19
2023-05-18T10:10:59.493Z,45.34
2023-05-18T10:11:59.535Z,46.58
2023-05-18T10:12:59.597Z,44.49
2023-05-18T10:13:59.660Z,41.73
2023-05-18T10:14:59.728Z,37.17
2023-05-18T10:15:59.807Z,39.49
2023-05-18T10:17:14.285Z,41.28
2023-05-18T10:18:00.864Z,41.50
2023-05-18T10:18:59.876Z,41.41
2023-05-18T10:19:59.823Z,39.17
2023-05-18T10:21:00.385Z,35.85
2023-05-18T10:21:59.815Z,40.54
2023-05-18T10:22:59.805Z,38.58
2023-05-18T10:23:59.790Z,42.93
2023-05-18T10:24:59.796Z,49.54
2023-05-18T10:25:59.781Z,47.40
2023-05-18T10:26:59.807Z,42.93
2023-05-18T10:27:59.874Z,40.35
2023-05-18T10:28:59.939Z,42.45
2023-05-18T10:30:00.009Z,41.73
2023-05-18T10:31:00.123Z,44.49
2023-05-18T10:32:02.588Z,42.14
2023-05-18T10:33:00.183Z,48.91
2023-05-18T10:34:00.134Z,41.29
2023-05-18T10:35:00.152Z,47.29
2023-05-18T10:36:00.135Z,49.94
2023-05-18T10:37:00.101Z,50.63
2023-05-18T10:38:00.084Z,52.43
2023-05-18T10:39:00.099Z,52.71
2023-05-18T10:40:00.086Z,51.81
2023-05-18T10:41:00.058Z,54.86
2023-05-18T10:42:00.050Z,54.43
2023-05-18T10:43:00.053Z,55.79
2023-05-18T10:44:00.030Z,53.33
2023-05-18T10:45:00.023Z,53.50
2023-05-18T10:46:00.119Z,56.82
2023-05-18T10:47:00.073Z,54.97
2023-05-18T10:48:00.121Z,58.66
2023-05-18T10:49:00.012Z,62.73
2023-05-18T10:49:59.985Z,57.38
2023-05-18T10:50:59.984Z,55.80
2023-05-18T10:51:59.997Z,57.11
2023-05-18T10:52:59.967Z,58.32
2023-05-18T10:53:59.991Z,56.94
2023-05-18T10:54:59.953Z,57.69
2023-05-18T10:55:59.969Z,55.96
2023-05-18T10:56:59.953Z,58.10
2023-05-18T10:57:59.933Z,59.97
2023-05-18T10:58:59.990Z,60.07
2023-05-18T11:00:00.053Z,55.45
2023-05-18T11:01:00.176Z,56.32
2023-05-18T11:02:00.233Z,60.36
2023-05-18T11:03:00.264Z,60.39
2023-05-18T11:04:00.287Z,63.09
2023-05-18T11:05:00.394Z,64.14
2023-05-18T11:06:00.432Z,64.56
2023-05-18T11:07:00.463Z,60.90
2023-05-18T11:08:00.526Z,60.54
2023-05-18T11:09:00.582Z,56.49
2023-05-18T11:10:00.640Z,61.36
2023-05-18T11:11:00.708Z,64.10
2023-05-18T11:12:00.763Z,60.64
2023-05-18T11:13:00.816Z,56.47
2023-05-18T11:14:00.871Z,56.47
2023-05-18T11:15:00.958Z,58.25
2023-05-18T11:16:01.058Z,59.07
2023-05-18T11:17:01.038Z,58.73
2023-05-18T11:18:01.133Z,59.53
2023-05-18T11:19:01.190Z,60.64
2023-05-18T11:20:01.208Z,61.73
2023-05-18T11:21:01.282Z,60.82
2023-05-18T11:22:01.330Z,57.08
2023-05-18T11:23:01.382Z,59.73
2023-05-18T11:24:01.443Z,61.45
2023-05-18T11:25:01.545Z,62.53
2023-05-18T11:26:01.568Z,59.98
2023-05-18T11:27:01.615Z,59.66
2023-05-18T11:28:01.691Z,60.87
2023-05-18T11:29:01.744Z,61.08
2023-05-18T11:30:14.779Z,53.92
2023-05-18T11:31:02.792Z,54.06
2023-05-18T11:32:02.576Z,54.94
2023-05-18T11:33:01.964Z,55.06
2023-05-18T11:34:01.777Z,55.65
2023-05-18T11:35:01.766Z,57.42
2023-05-18T11:36:01.756Z,58.88
2023-05-18T11:37:01.786Z,56.14
2023-05-18T11:38:01.739Z,57.11
2023-05-18T11:39:01.735Z,54.42
2023-05-18T11:40:04.570Z,52.87
2023-05-18T11:41:02.766Z,53.05
2023-05-18T11:42:01.714Z,53.55
2023-05-18T11:43:01.710Z,54.47
2023-05-18T11:44:01.725Z,56.51
2023-05-18T11:45:01.687Z,59.86
2023-05-18T11:46:01.691Z,57.88
2023-05-18T11:47:01.681Z,61.18
2023-05-18T11:48:01.851Z,63.52
2023-05-18T11:49:01.687Z,61.67
2023-05-18T11:50:01.675Z,61.87
2023-05-18T11:51:01.735Z,58.81
2023-05-18T11:52:01.787Z,55.06
2023-05-18T11:53:01.848Z,53.25
2023-05-18T11:54:01.910Z,54.61
2023-05-18T11:55:01.995Z,57.58
2023-05-18T11:56:02.054Z,59.97
2023-05-18T11:57:02.077Z,58.36
2023-05-18T11:58:02.127Z,58.15
2023-05-18T11:59:02.180Z,61.10
2023-05-18T12:00:02.256Z,60.21
2023-05-18T12:01:02.302Z,63.48
2023-05-18T12:02:02.404Z,56.82
2023-05-18T12:03:02.649Z,60.07
2023-05-18T12:04:02.599Z,61.03
2023-05-18T12:05:02.565Z,60.74
2023-05-18T12:06:02.609Z,58.44
2023-05-18T12:07:02.662Z,61.37
2023-05-18T12:08:02.713Z,62.46
2023-05-18T12:09:03.825Z,65.71
2023-05-18T12:10:02.877Z,65.07
2023-05-18T12:11:02.908Z,64.46
2023-05-18T12:12:02.945Z,65.04
2023-05-18T12:13:02.991Z,59.33
2023-05-18T12:14:03.064Z,59.55
2023-05-18T12:15:03.122Z,52.62
2023-05-18T12:16:03.183Z,56.01
2023-05-18T12:17:03.475Z,51.42
2023-05-18T12:18:03.372Z,47.24
2023-05-18T12:19:03.388Z,50.13
2023-05-18T12:20:03.394Z,43.66
2023-05-18T12:21:03.458Z,43.25
2023-05-18T12:22:03.514Z,46.05
2023-05-18T12:23:03.572Z,39.30
2023-05-18T12:24:03.611Z,39.41
2023-05-18T12:25:03.692Z,40.04
2023-05-18T12:26:03.758Z,38.72
2023-05-18T12:27:04.969Z,36.56
2023-05-18T12:28:03.786Z,38.42
2023-05-18T12:29:03.757Z,30.22
2023-05-18T12:30:03.778Z,32.37
2023-05-18T12:31:03.808Z,36.26
2023-05-18T12:32:03.735Z,32.21
2023-05-18T12:33:03.860Z,39.21
2023-05-18T12:34:03.760Z,35.73
2023-05-18T12:35:03.711Z,26.84
2023-05-18T12:36:03.734Z,30.52
2023-05-18T12:37:03.700Z,33.65
2023-05-18T12:38:03.701Z,32.29
2023-05-18T12:39:03.683Z,36.09
2023-05-18T12:40:03.685Z,31.05
2023-05-18T12:41:03.690Z,36.03
2023-05-18T12:42:03.669Z,37.60
2023-05-18T12:43:03.652Z,35.57
2023-05-18T12:44:03.649Z,36.84
2023-05-18T12:45:06.334Z,37.95
2023-05-18T12:46:03.676Z,37.58
2023-05-18T12:47:03.646Z,36.97
2023-05-18T12:48:03.656Z,34.46
2023-05-18T12:49:03.632Z,33.46
2023-05-18T12:50:03.631Z,40.73
2023-05-18T12:51:03.618Z,45.44
2023-05-18T12:52:03.605Z,42.44